CYXY

Whitehorse/Erik Nielsen International Airport

Whitehorse, , Canada
METAR CYXY 172000Z VRB03KT 40SM FEW060 BKN200 M06/M10 A2945 RMK SC2CI3 SLP014
Observed Flight Rules
Dec-17 @ 20:00 UTC (an hour ago) Visual Flight Rules
Wind Visibility Clouds
Variable at 3 knots 40 miles
  • Few at 6,000' AGL
  • Broken at 20,000' AGL
Temperatures Readings
Current -6°C / 21°F
Dewpoint -10°C / 14°F
Humidity 74%
Altimeter 29.45" Hg
Pressure 1001.4 hPa
Elevation 703
METAR CYXY 172000Z VRB03KT 40SM FEW060 BKN200 M06/M10 A2945 RMK SC2CI3 SLP014
Observed Flight Rules
Dec-17 @ 20:00 UTC
(an hour ago)
VFR
Wind Visibility
Variable at 3 knots 40 miles
Clouds
  • Few at 6,000' AGL
  • Broken at 20,000' AGL
Temperature Dewpoint
-6°C / 21°F -10°C / 14°F
Humidity Altimeter Pressure
74% 29.45" Hg 1001.4 hPa